Time;durP1;ratioP1;P1;durP2;ratioP2;P2;SDS_P1;SDS_P2;PMS_P1;PMS_P2;Temp;Humidity;BMP_temperature;BMP_pressure;BME280_temperature;BME280_humidity;BME280_pressure;Samples;Min_cycle;Max_cycle;Signal;HPM_P1;HPM_P2
2022/07/31 00:00:16;;;;;;;7.90;2.90;;;;;;;17.83;78.78;99821.02;105810;1276;22646;-74
2022/07/31 00:02:43;;;;;;;5.00;2.70;;;;;;;17.85;78.70;99816.83;106082;1275;22792;-75
2022/07/31 00:05:10;;;;;;;4.00;2.80;;;;;;;17.87;78.57;99816.59;105991;1276;22655;-77
2022/07/31 00:07:37;;;;;;;3.70;2.50;;;;;;;17.87;78.75;99813.75;106012;1274;23555;-79
2022/07/31 00:10:05;;;;;;;4.40;2.80;;;;;;;17.84;78.60;99812.27;105990;1274;22535;-73
2022/07/31 00:12:33;;;;;;;3.30;2.50;;;;;;;17.83;78.52;99814.27;105923;1276;22655;-72
2022/07/31 00:15:02;;;;;;;3.30;2.40;;;;;;;17.79;78.68;99807.86;105728;1276;22561;-73
2022/07/31 00:17:31;;;;;;;2.70;2.10;;;;;;;17.81;78.83;99808.29;105989;1276;22574;-72
2022/07/31 00:19:58;;;;;;;8.10;2.70;;;;;;;17.82;78.72;99810.75;105961;1276;22551;-72
2022/07/31 00:22:24;;;;;;;4.30;2.70;;;;;;;17.83;78.85;99810.02;105983;1274;25468;-74
2022/07/31 00:24:51;;;;;;;2.80;2.30;;;;;;;17.82;78.80;99807.86;105838;1276;22887;-73
2022/07/31 00:27:18;;;;;;;2.90;2.30;;;;;;;17.81;78.99;99807.95;105920;1274;24312;-73
2022/07/31 00:29:45;;;;;;;3.90;1.90;;;;;;;17.81;78.89;99804.56;105824;1274;25415;-74
2022/07/31 00:32:12;;;;;;;4.70;2.30;;;;;;;17.80;78.90;99803.51;105991;1274;24302;-76
2022/07/31 00:34:38;;;;;;;4.10;2.40;;;;;;;17.74;78.76;99796.01;105831;1276;22557;-80
2022/07/31 00:37:05;;;;;;;2.80;2.20;;;;;;;17.77;79.00;99801.00;105974;1274;25463;-75
2022/07/31 00:39:33;;;;;;;6.50;2.70;;;;;;;17.79;79.05;99795.75;105967;1274;25330;-76
2022/07/31 00:41:59;;;;;;;5.10;2.70;;;;;;;17.82;79.16;99797.77;105930;1276;22556;-75
2022/07/31 00:44:27;;;;;;;4.20;2.50;;;;;;;17.80;79.08;99796.23;105916;1276;22550;-76
2022/07/31 00:46:57;;;;;;;3.00;2.30;;;;;;;17.79;78.89;99796.10;105845;1276;25323;-77
2022/07/31 00:49:27;;;;;;;2.50;2.30;;;;;;;17.80;79.07;99795.73;105749;1277;25511;-76
2022/07/31 00:52:04;;;;;;;4.70;2.80;;;;;;;17.81;79.20;99794.08;106021;1275;22527;-75
2022/07/31 00:54:32;;;;;;;3.30;2.60;;;;;;;17.83;79.26;99791.46;106036;1275;25639;-74
2022/07/31 00:56:59;;;;;;;7.10;2.70;;;;;;;17.83;79.17;99789.53;106234;1274;24351;-75
2022/07/31 00:59:28;;;;;;;4.90;2.60;;;;;;;17.78;78.91;99783.83;106098;1275;24404;-75
2022/07/31 01:01:55;;;;;;;5.90;2.40;;;;;;;17.75;78.83;99785.08;106081;1275;22557;-74
2022/07/31 01:04:22;;;;;;;4.60;2.30;;;;;;;17.75;79.10;99788.13;106043;1275;22642;-73
2022/07/31 01:06:49;;;;;;;5.40;2.30;;;;;;;17.73;78.91;99784.64;106077;1276;22555;-72
2022/07/31 01:09:16;;;;;;;5.70;2.70;;;;;;;17.76;79.19;99787.37;106048;1276;23067;-71
2022/07/31 01:11:47;;;;;;;3.70;2.30;;;;;;;17.75;79.05;99783.52;106456;1275;24391;-82
2022/07/31 01:14:20;;;;;;;2.70;2.30;;;;;;;17.73;78.89;99778.77;106341;1275;26760;-72
2022/07/31 01:16:50;;;;;;;4.00;2.40;;;;;;;17.74;79.09;99777.27;106043;1275;25604;-73
2022/07/31 01:19:36;;;;;;;3.70;2.80;;;;;;;17.75;78.94;99780.84;106008;1276;25321;-75
2022/07/31 01:22:33;;;;;;;4.00;2.60;;;;;;;17.75;78.94;99778.85;105934;1274;22616;-73
2022/07/31 01:25:38;;;;;;;3.90;2.70;;;;;;;17.74;78.78;99773.92;106017;1274;23683;-73
2022/07/31 01:28:41;;;;;;;5.50;2.40;;;;;;;17.67;78.46;99767.31;105894;1275;22659;-73
2022/07/31 01:31:12;;;;;;;2.50;2.20;;;;;;;17.56;78.81;99762.86;105961;1275;25289;-73
2022/07/31 01:34:11;;;;;;;4.20;2.30;;;;;;;17.47;78.59;99759.73;105943;1274;22561;-73
2022/07/31 01:36:46;;;;;;;2.90;2.10;;;;;;;17.44;79.21;99754.52;105928;1274;22587;-73
2022/07/31 01:39:12;;;;;;;4.50;2.50;;;;;;;17.43;79.17;99747.96;105821;1276;22587;-75
2022/07/31 01:41:45;;;;;;;2.50;2.00;;;;;;;17.47;79.09;99745.15;105947;1276;22748;-76
2022/07/31 01:44:15;;;;;;;7.20;2.00;;;;;;;17.40;78.93;99739.59;105923;1275;24217;-79
2022/07/31 01:46:44;;;;;;;3.70;2.20;;;;;;;17.33;79.29;99733.33;105919;1276;24245;-78
2022/07/31 01:49:14;;;;;;;2.70;2.00;;;;;;;17.36;79.71;99727.16;105755;1275;22546;-77
2022/07/31 01:51:44;;;;;;;2.40;2.20;;;;;;;17.37;79.44;99719.96;105677;1274;22608;-76
2022/07/31 01:54:12;;;;;;;4.50;2.30;;;;;;;17.42;79.68;99718.85;105870;1276;24302;-78
2022/07/31 01:56:40;;;;;;;4.40;2.20;;;;;;;17.41;79.37;99720.16;105946;1275;24264;-75
2022/07/31 01:59:09;;;;;;;4.50;2.30;;;;;;;17.39;79.47;99719.51;105879;1275;22600;-76
2022/07/31 02:02:28;;;;;;;3.10;2.10;;;;;;;17.41;79.56;99716.77;105392;1281;24493;-73
2022/07/31 02:04:57;;;;;;;3.10;2.20;;;;;;;17.41;79.46;99716.42;105504;1281;25232;-74
2022/07/31 02:07:26;;;;;;;3.20;2.00;;;;;;;17.42;79.48;99712.63;105586;1276;25307;-73
2022/07/31 02:09:55;;;;;;;3.00;2.10;;;;;;;17.41;79.31;99706.61;105944;1276;22783;-74
2022/07/31 02:12:28;;;;;;;3.90;2.70;;;;;;;17.35;79.36;99710.81;105999;1276;22550;-72
2022/07/31 02:15:02;;;;;;;4.70;2.20;;;;;;;17.36;79.45;99706.86;106010;1274;23967;-74
2022/07/31 02:17:29;;;;;;;5.40;2.60;;;;;;;17.35;79.58;99705.65;105991;1276;22541;-72
2022/07/31 02:20:18;;;;;;;5.00;2.20;;;;;;;17.37;79.56;99704.88;105906;1274;23164;-72
2022/07/31 02:22:47;;;;;;;3.80;2.20;;;;;;;17.33;79.71;99709.82;105850;1275;25489;-82
2022/07/31 02:25:13;;;;;;;4.20;2.50;;;;;;;17.35;79.75;99704.77;105892;1275;25259;-73
2022/07/31 02:27:42;;;;;;;4.60;2.80;;;;;;;17.36;79.86;99697.59;105972;1274;25374;-71
2022/07/31 02:30:30;;;;;;;3.80;2.40;;;;;;;17.36;79.91;99696.73;105901;1275;23857;-71
2022/07/31 02:33:13;;;;;;;4.00;2.30;;;;;;;17.31;79.79;99695.50;105727;1276;22521;-74
2022/07/31 02:35:44;;;;;;;4.50;2.30;;;;;;;17.25;79.75;99693.69;105869;1278;26497;-74
2022/07/31 02:38:15;;;;;;;4.60;2.50;;;;;;;17.25;79.95;99698.30;106252;1273;22730;-71
2022/07/31 02:40:55;;;;;;;9.00;2.00;;;;;;;17.30;80.04;99697.49;105999;1274;23644;-82
2022/07/31 02:43:25;;;;;;;3.90;2.90;;;;;;;17.34;80.06;99695.91;106002;1273;22584;-75
2022/07/31 02:45:55;;;;;;;4.70;2.40;;;;;;;17.37;79.95;99698.42;106043;1273;24317;-72
2022/07/31 02:48:24;;;;;;;3.30;2.50;;;;;;;17.39;80.05;99699.58;105947;1276;25359;-73
2022/07/31 02:50:52;;;;;;;2.80;1.90;;;;;;;17.43;79.83;99699.77;106154;1274;22728;-83
2022/07/31 02:53:19;;;;;;;5.40;2.30;;;;;;;17.40;79.53;99694.05;106007;1274;22550;-76
2022/07/31 02:55:49;;;;;;;4.70;2.50;;;;;;;17.37;79.82;99695.26;105976;1274;23961;-76
2022/07/31 02:58:16;;;;;;;6.10;2.60;;;;;;;17.38;80.03;99690.94;106050;1274;22646;-77
2022/07/31 03:00:44;;;;;;;3.00;2.30;;;;;;;17.38;79.97;99690.95;106328;1273;25306;-77
2022/07/31 03:03:11;;;;;;;4.70;2.40;;;;;;;17.32;79.92;99686.41;106334;1273;22736;-76
2022/07/31 03:05:39;;;;;;;5.10;2.20;;;;;;;17.34;79.96;99690.23;106105;1272;22668;-72
2022/07/31 03:08:05;;;;;;;3.30;1.80;;;;;;;17.37;80.03;99692.94;106227;1274;22592;-72
2022/07/31 03:10:33;;;;;;;5.40;2.40;;;;;;;17.39;80.05;99687.14;105305;1281;25646;-73
2022/07/31 03:13:05;;;;;;;6.40;2.50;;;;;;;17.40;80.06;99684.79;105710;1278;23161;-73
2022/07/31 03:15:34;;;;;;;3.10;2.30;;;;;;;17.39;79.90;99684.13;105656;1279;26512;-73
2022/07/31 03:18:01;;;;;;;4.20;2.80;;;;;;;17.39;80.16;99681.95;105601;1279;22632;-73
2022/07/31 03:20:41;;;;;;;2.80;2.30;;;;;;;17.41;79.98;99676.02;105510;1279;22597;-73
2022/07/31 03:23:11;;;;;;;3.10;1.90;;;;;;;17.43;80.14;99678.59;105540;1279;24246;-72
2022/07/31 03:25:50;;;;;;;2.80;2.40;;;;;;;17.42;80.02;99668.13;105681;1279;22698;-74
2022/07/31 03:28:18;;;;;;;5.10;2.30;;;;;;;17.45;79.83;99671.00;105726;1274;22559;-73
2022/07/31 03:30:49;;;;;;;4.50;2.50;;;;;;;17.44;79.92;99669.44;105842;1276;22570;-75
2022/07/31 03:33:21;;;;;;;2.50;2.10;;;;;;;17.39;79.76;99672.52;105977;1275;22724;-73
2022/07/31 03:35:48;;;;;;;5.00;2.20;;;;;;;17.39;79.91;99670.55;105945;1274;25515;-73
2022/07/31 03:38:15;;;;;;;3.90;2.20;;;;;;;17.39;79.89;99669.33;106226;1273;22730;-76
2022/07/31 03:41:03;;;;;;;3.50;2.30;;;;;;;17.36;79.92;99659.35;106126;1274;25374;-75
2022/07/31 03:43:32;;;;;;;2.30;2.00;;;;;;;17.38;80.05;99660.14;106020;1279;26560;-76
2022/07/31 03:46:15;;;;;;;3.20;2.50;;;;;;;17.43;80.10;99665.06;105822;1279;25537;-72
2022/07/31 03:48:43;;;;;;;3.90;2.20;;;;;;;17.40;80.19;99658.98;105862;1279;25456;-76
2022/07/31 03:51:12;;;;;;;3.10;2.30;;;;;;;17.41;80.14;99655.02;105834;1278;22562;-76
2022/07/31 03:53:40;;;;;;;2.50;2.00;;;;;;;17.40;80.17;99652.55;106036;1279;24120;-77
2022/07/31 03:56:08;;;;;;;3.20;2.50;;;;;;;17.40;80.15;99654.51;105927;1279;25353;-79
2022/07/31 03:58:36;;;;;;;3.70;2.30;;;;;;;17.40;80.21;99655.59;105693;1279;25680;-76
2022/07/31 04:01:05;;;;;;;3.50;2.40;;;;;;;17.38;80.04;99648.05;106058;1273;25335;-82
2022/07/31 04:03:38;;;;;;;4.50;2.40;;;;;;;17.36;80.03;99647.77;106120;1275;25256;-79
2022/07/31 04:06:32;;;;;;;2.80;2.50;;;;;;;17.30;80.18;99646.66;106113;1275;25431;-79
2022/07/31 04:09:00;;;;;;;4.20;2.70;;;;;;;17.32;80.44;99643.86;106234;1273;22550;-77
2022/07/31 04:11:44;;;;;;;4.70;2.70;;;;;;;17.35;80.49;99639.45;106219;1273;22704;-79
2022/07/31 04:14:11;;;;;;;6.10;2.60;;;;;;;17.38;80.54;99637.73;106044;1276;24219;-75
2022/07/31 04:16:38;;;;;;;2.60;2.40;;;;;;;17.37;80.36;99628.86;105990;1275;22853;-76
2022/07/31 04:19:05;;;;;;;2.60;2.40;;;;;;;17.38;80.60;99625.62;106166;1273;22577;-76
2022/07/31 04:21:31;;;;;;;4.90;3.20;;;;;;;17.39;80.38;99622.73;106029;1274;24273;-76
2022/07/31 04:23:58;;;;;;;3.10;2.20;;;;;;;17.39;80.44;99620.95;106003;1276;22554;-85
2022/07/31 04:27:03;;;;;;;2.90;2.30;;;;;;;17.35;80.28;99622.91;105889;1279;22931;-77
2022/07/31 04:29:42;;;;;;;4.20;2.80;;;;;;;17.37;80.67;99621.75;105984;1275;25195;-78
2022/07/31 04:32:09;;;;;;;4.40;2.90;;;;;;;17.36;80.44;99622.31;106282;1273;26664;-74
2022/07/31 04:34:45;;;;;;;3.10;2.60;;;;;;;17.35;80.60;99620.61;106121;1274;22535;-76
2022/07/31 04:37:12;;;;;;;3.40;2.30;;;;;;;17.35;80.57;99620.21;106173;1273;22687;-76
2022/07/31 04:39:39;;;;;;;2.50;2.10;;;;;;;17.36;80.60;99619.48;106217;1277;23940;-82
2022/07/31 04:42:06;;;;;;;2.80;2.10;;;;;;;17.40;80.63;99622.30;107299;1273;26685;-73
2022/07/31 04:44:37;;;;;;;2.60;2.30;;;;;;;17.39;80.77;99616.29;106638;1273;23825;-90
2022/07/31 04:47:06;;;;;;;4.30;2.30;;;;;;;17.42;80.67;99620.04;106382;1273;22608;-76
2022/07/31 04:49:37;;;;;;;2.80;2.10;;;;;;;17.44;80.70;99624.61;106357;1275;25868;-76
2022/07/31 04:52:04;;;;;;;2.40;2.00;;;;;;;17.44;80.56;99623.73;106176;1274;24199;-75
2022/07/31 04:54:33;;;;;;;1.80;1.70;;;;;;;17.41;80.43;99619.76;105939;1276;25551;-80
2022/07/31 04:57:00;;;;;;;2.40;1.80;;;;;;;17.42;80.58;99624.69;106064;1274;25226;-79
2022/07/31 04:59:27;;;;;;;2.70;2.40;;;;;;;17.41;80.43;99627.41;105962;1276;22547;-78
2022/07/31 05:02:13;;;;;;;2.70;2.00;;;;;;;17.35;80.55;99626.83;106038;1273;22601;-81
2022/07/31 05:04:40;;;;;;;2.00;1.90;;;;;;;17.33;80.89;99627.81;106047;1273;22794;-82
2022/07/31 05:07:07;;;;;;;1.70;1.60;;;;;;;17.33;80.84;99624.41;106025;1273;24414;-81
2022/07/31 05:09:34;;;;;;;2.50;1.50;;;;;;;17.35;81.02;99625.94;105985;1282;22740;-76
2022/07/31 05:12:03;;;;;;;1.90;1.70;;;;;;;17.37;80.81;99627.98;105983;1281;25428;-76
2022/07/31 05:14:31;;;;;;;2.10;1.90;;;;;;;17.39;80.85;99627.52;106013;1282;22831;-76
2022/07/31 05:16:58;;;;;;;1.60;1.50;;;;;;;17.40;80.83;99628.91;105932;1282;22540;-76
2022/07/31 05:19:30;;;;;;;1.80;1.50;;;;;;;17.39;80.80;99627.69;105998;1281;25427;-76
2022/07/31 05:22:16;;;;;;;1.50;1.40;;;;;;;17.41;80.83;99629.58;106260;1278;25406;-74
2022/07/31 05:25:03;;;;;;;1.30;1.20;;;;;;;17.44;80.74;99629.77;105978;1278;24221;-84
2022/07/31 05:27:30;;;;;;;1.40;1.30;;;;;;;17.44;80.59;99625.14;105897;1277;22551;-77
2022/07/31 05:30:06;;;;;;;1.90;1.30;;;;;;;17.42;80.54;99627.71;106131;1274;22606;-83
2022/07/31 05:32:34;;;;;;;2.20;1.20;;;;;;;17.42;80.61;99628.98;106152;1274;25215;-78
2022/07/31 05:35:01;;;;;;;21.80;6.20;;;;;;;17.42;80.55;99630.34;106007;1275;22593;-77
2022/07/31 05:37:27;;;;;;;1.20;1.10;;;;;;;17.45;80.53;99630.25;106101;1275;25573;-76
2022/07/31 05:39:57;;;;;;;1.10;1.10;;;;;;;17.37;80.17;99629.39;106040;1274;25697;-77
2022/07/31 05:42:59;;;;;;;1.20;1.10;;;;;;;17.38;80.26;99631.52;105637;1281;24267;-76
2022/07/31 05:45:43;;;;;;;1.30;1.20;;;;;;;17.34;80.40;99631.88;106048;1274;25296;-76
2022/07/31 05:48:10;;;;;;;1.10;1.00;;;;;;;17.30;80.38;99631.48;105996;1275;22531;-75
2022/07/31 05:50:37;;;;;;;1.00;1.00;;;;;;;17.30;80.54;99628.30;106056;1277;22598;-75
2022/07/31 05:53:03;;;;;;;1.20;1.10;;;;;;;17.35;80.68;99630.58;106057;1274;24772;-79
2022/07/31 05:55:50;;;;;;;1.00;1.00;;;;;;;17.34;80.24;99628.30;105957;1275;24306;-79
2022/07/31 05:58:38;;;;;;;2.70;1.30;;;;;;;17.29;80.43;99624.98;106078;1274;25498;-80
2022/07/31 06:01:05;;;;;;;1.00;1.00;;;;;;;17.28;80.40;99624.30;106028;1278;24273;-75
2022/07/31 06:03:34;;;;;;;1.30;1.00;;;;;;;17.32;80.52;99622.52;106080;1274;25486;-83
2022/07/31 06:06:24;;;;;;;0.90;0.90;;;;;;;17.33;80.28;99624.77;106278;1274;25847;-80
2022/07/31 06:08:51;;;;;;;0.80;0.80;;;;;;;17.31;80.29;99626.48;106023;1274;24237;-81
2022/07/31 06:11:19;;;;;;;1.40;1.20;;;;;;;17.31;80.34;99622.90;106066;1274;25230;-78
2022/07/31 06:13:46;;;;;;;1.20;1.20;;;;;;;17.36;80.50;99624.46;105963;1274;22596;-75
2022/07/31 06:16:18;;;;;;;1.00;1.00;;;;;;;17.38;80.37;99623.14;105989;1274;25252;-75
2022/07/31 06:18:44;;;;;;;1.50;1.40;;;;;;;17.40;80.37;99623.23;105990;1274;24094;-74
2022/07/31 06:21:11;;;;;;;0.80;0.80;;;;;;;17.43;80.34;99616.99;105767;1277;23502;-75
2022/07/31 06:23:37;;;;;;;0.80;0.80;;;;;;;17.44;80.18;99616.23;105768;1275;23551;-74
2022/07/31 06:26:13;;;;;;;1.00;0.90;;;;;;;17.47;80.35;99617.53;105970;1275;25250;-74
2022/07/31 06:28:40;;;;;;;1.60;1.20;;;;;;;17.45;80.16;99615.44;105882;1274;22556;-74
2022/07/31 06:31:19;;;;;;;2.10;1.00;;;;;;;17.48;80.31;99616.20;105966;1274;24357;-75
2022/07/31 06:33:47;;;;;;;1.00;0.90;;;;;;;17.48;80.13;99613.19;105934;1274;25335;-75
2022/07/31 06:36:17;;;;;;;0.90;0.90;;;;;;;17.44;79.96;99617.65;106008;1277;22639;-74
2022/07/31 06:38:57;;;;;;;1.00;0.90;;;;;;;17.46;80.12;99611.15;105907;1274;25288;-74
2022/07/31 06:44:29;;;;;;;1.00;1.00;;;;;;;17.49;79.86;99608.71;105959;1274;22681;-73
2022/07/31 06:47:20;;;;;;;1.20;1.00;;;;;;;17.43;79.88;99609.85;105933;1274;25647;-75
2022/07/31 06:50:07;;;;;;;1.30;1.20;;;;;;;17.44;80.16;99611.43;105955;1274;22586;-74
2022/07/31 06:52:37;;;;;;;1.00;0.90;;;;;;;17.43;80.10;99612.90;105941;1274;22739;-76
2022/07/31 06:55:06;;;;;;;2.30;1.10;;;;;;;17.43;80.07;99604.90;105952;1274;22702;-75
2022/07/31 06:57:33;;;;;;;1.10;1.00;;;;;;;17.39;79.95;99606.86;106101;1274;22619;-76
2022/07/31 07:00:00;;;;;;;1.30;1.20;;;;;;;17.35;80.00;99604.57;105973;1273;25671;-76
2022/07/31 07:02:40;;;;;;;3.50;1.10;;;;;;;17.40;80.15;99608.27;105834;1275;24038;-76
2022/07/31 07:05:07;;;;;;;1.80;1.30;;;;;;;17.37;80.12;99605.75;105984;1274;24297;-73
2022/07/31 07:07:35;;;;;;;1.70;1.20;;;;;;;17.38;80.13;99603.38;105835;1274;22594;-79
2022/07/31 07:10:04;;;;;;;1.20;1.20;;;;;;;17.37;80.23;99603.07;105976;1273;25495;-79
2022/07/31 07:12:54;;;;;;;2.10;1.20;;;;;;;17.41;80.35;99602.13;105850;1275;22611;-78
2022/07/31 07:15:21;;;;;;;1.40;1.30;;;;;;;17.44;80.47;99598.05;106042;1274;22532;-79
2022/07/31 07:17:48;;;;;;;2.10;1.20;;;;;;;17.48;80.40;99601.98;105982;1274;22597;-78
2022/07/31 07:20:19;;;;;;;1.60;1.10;;;;;;;17.47;80.26;99600.21;105931;1275;22613;-79
2022/07/31 07:22:46;;;;;;;1.80;1.50;;;;;;;17.47;80.18;99594.56;105967;1274;22621;-75
2022/07/31 07:25:21;;;;;;;1.20;1.10;;;;;;;17.42;80.06;99598.00;105978;1273;22553;-75
2022/07/31 07:27:49;;;;;;;2.50;1.00;;;;;;;17.43;80.32;99603.30;106012;1274;22544;-74
2022/07/31 07:30:16;;;;;;;0.80;0.80;;;;;;;17.42;80.22;99603.88;106028;1274;24232;-80
2022/07/31 07:32:43;;;;;;;1.30;1.20;;;;;;;17.42;80.42;99604.60;105809;1275;25576;-75
2022/07/31 07:35:11;;;;;;;1.10;1.10;;;;;;;17.40;80.58;99594.17;105851;1275;24412;-75
2022/07/31 07:37:47;;;;;;;1.00;1.00;;;;;;;17.47;80.75;99600.94;105983;1273;22557;-74
2022/07/31 07:40:15;;;;;;;1.30;1.20;;;;;;;17.50;80.60;99599.53;105957;1274;23928;-75
2022/07/31 07:42:43;;;;;;;1.40;1.20;;;;;;;17.55;80.87;99598.06;105857;1275;22627;-75
2022/07/31 07:45:10;;;;;;;2.20;1.60;;;;;;;17.62;80.76;99598.23;105942;1274;24304;-75
2022/07/31 07:47:39;;;;;;;1.50;1.40;;;;;;;17.61;80.55;99595.98;106123;1273;22656;-73
2022/07/31 07:50:28;;;;;;;3.70;1.60;;;;;;;17.64;80.73;99600.31;105820;1274;22561;-75
2022/07/31 07:53:13;;;;;;;6.20;3.40;;;;;;;17.65;80.77;99602.52;105952;1274;25327;-73
2022/07/31 07:56:09;;;;;;;2.50;1.70;;;;;;;17.68;80.73;99600.61;105606;1277;25379;-75
2022/07/31 07:58:55;;;;;;;1.90;1.70;;;;;;;17.69;80.79;99594.83;106015;1274;24318;-75
2022/07/31 08:01:42;;;;;;;1.60;1.50;;;;;;;17.74;80.95;99596.95;105805;1274;24072;-74
2022/07/31 08:04:23;;;;;;;2.50;1.80;;;;;;;17.76;80.92;99597.02;105924;1274;24914;-76
2022/07/31 08:06:49;;;;;;;2.10;1.90;;;;;;;17.78;80.96;99600.13;106043;1273;23078;-79
2022/07/31 08:09:19;;;;;;;3.90;1.70;;;;;;;17.72;80.76;99592.58;105942;1273;25548;-77
2022/07/31 08:12:05;;;;;;;1.70;1.60;;;;;;;17.75;81.07;99599.55;106034;1273;25729;-78
2022/07/31 08:14:50;;;;;;;1.80;1.70;;;;;;;17.79;81.19;99598.10;106194;1273;22512;-77
2022/07/31 08:17:35;;;;;;;4.10;1.80;;;;;;;17.80;81.17;99598.02;106152;1273;24226;-81
2022/07/31 08:20:03;;;;;;;2.20;2.00;;;;;;;17.84;81.22;99598.92;105966;1273;24519;-81
2022/07/31 08:22:31;;;;;;;2.10;1.70;;;;;;;17.86;81.21;99600.94;106147;1275;25572;-77
2022/07/31 08:24:58;;;;;;;2.30;1.70;;;;;;;17.89;81.15;99600.98;106196;1273;22564;-80
2022/07/31 08:27:31;;;;;;;2.40;2.20;;;;;;;17.91;81.27;99601.58;106079;1275;22605;-79
2022/07/31 08:30:07;;;;;;;2.10;1.90;;;;;;;17.95;81.30;99600.85;106187;1273;22643;-77
2022/07/31 08:32:34;;;;;;;2.40;1.90;;;;;;;17.98;81.33;99603.15;106157;1274;23991;-78
2022/07/31 08:35:29;;;;;;;2.20;2.00;;;;;;;18.01;81.25;99603.55;106102;1275;22542;-71
2022/07/31 08:37:56;;;;;;;3.50;3.20;;;;;;;18.03;81.28;99598.48;105926;1275;22642;-71
2022/07/31 08:40:37;;;;;;;2.50;2.30;;;;;;;18.05;81.09;99594.80;105906;1274;22673;-73
2022/07/31 08:43:10;;;;;;;2.30;2.10;;;;;;;18.07;81.15;99598.96;105938;1275;22548;-75
2022/07/31 08:46:01;;;;;;;2.20;2.10;;;;;;;18.05;80.99;99600.98;105764;1275;25259;-72
2022/07/31 08:48:33;;;;;;;2.40;2.20;;;;;;;18.07;81.15;99596.80;106084;1274;22745;-75
2022/07/31 08:51:02;;;;;;;2.30;2.10;;;;;;;18.09;81.16;99598.32;105953;1274;26561;-74
2022/07/31 08:53:50;;;;;;;2.60;2.40;;;;;;;18.12;81.21;99599.63;106041;1274;22560;-73
2022/07/31 08:56:19;;;;;;;2.40;2.10;;;;;;;18.13;81.17;99599.05;105981;1274;25310;-71
2022/07/31 08:58:46;;;;;;;2.20;2.00;;;;;;;18.14;81.16;99599.50;105879;1274;22550;-70
2022/07/31 09:01:13;;;;;;;2.90;2.50;;;;;;;18.17;81.16;99600.95;105870;1274;25566;-74
2022/07/31 09:03:41;;;;;;;2.40;2.20;;;;;;;18.23;81.32;99599.94;106026;1274;25509;-72
2022/07/31 09:06:13;;;;;;;2.90;2.60;;;;;;;18.28;81.38;99604.47;105902;1276;22598;-74
2022/07/31 09:08:40;;;;;;;2.60;2.40;;;;;;;18.32;81.11;99605.68;106046;1274;24253;-75
2022/07/31 09:11:12;;;;;;;2.10;2.00;;;;;;;18.33;81.03;99606.19;105844;1274;22556;-75
2022/07/31 09:14:00;;;;;;;2.50;2.30;;;;;;;18.26;80.76;99604.39;105939;1274;23211;-73
2022/07/31 09:16:46;;;;;;;3.70;2.20;;;;;;;18.29;81.17;99607.45;106121;1274;22562;-76
2022/07/31 09:19:13;;;;;;;2.80;2.60;;;;;;;18.33;81.10;99607.24;106017;1275;24344;-79
2022/07/31 09:22:02;;;;;;;3.10;2.80;;;;;;;18.36;81.10;99614.38;106011;1275;24888;-79
2022/07/31 09:24:35;;;;;;;3.50;3.10;;;;;;;18.38;80.93;99615.72;106023;1274;24151;-78
2022/07/31 09:27:10;;;;;;;2.10;2.00;;;;;;;18.38;81.04;99616.42;106018;1274;22483;-80
2022/07/31 09:29:39;;;;;;;2.60;2.40;;;;;;;18.42;80.86;99622.45;106108;1275;25288;-79
2022/07/31 09:32:16;;;;;;;2.80;2.50;;;;;;;18.41;80.96;99622.83;105984;1275;25621;-76
2022/07/31 09:35:09;;;;;;;2.70;2.30;;;;;;;18.44;81.11;99627.52;106023;1274;22640;-81
2022/07/31 09:37:38;;;;;;;2.60;2.40;;;;;;;18.45;81.04;99630.67;106120;1273;22544;-77
2022/07/31 09:40:34;;;;;;;3.00;2.30;;;;;;;18.46;80.85;99629.54;106158;1273;24253;-80
2022/07/31 09:43:24;;;;;;;2.20;2.10;;;;;;;18.42;80.77;99631.01;106668;1273;22619;-83
2022/07/31 09:45:59;;;;;;;2.90;2.10;;;;;;;18.42;80.95;99629.62;106454;1273;24237;-86
2022/07/31 09:48:27;;;;;;;3.10;2.40;;;;;;;18.46;81.00;99628.69;106185;1274;24227;-79
2022/07/31 09:51:04;;;;;;;2.60;2.40;;;;;;;18.48;81.00;99628.53;106275;1274;25453;-83
2022/07/31 09:53:40;;;;;;;2.50;2.30;;;;;;;18.50;80.97;99632.00;106662;1274;22554;-81
2022/07/31 09:56:34;;;;;;;2.40;2.00;;;;;;;18.52;81.02;99631.67;106276;1273;24173;-84
2022/07/31 09:59:02;;;;;;;3.50;2.20;;;;;;;18.54;80.89;99632.51;105873;1276;25224;-86
2022/07/31 10:01:32;;;;;;;12.40;10.50;;;;;;;18.53;80.81;99630.23;105902;1276;23014;-80
2022/07/31 10:04:00;;;;;;;2.40;2.20;;;;;;;18.52;80.78;99626.91;105825;1278;25752;-80
2022/07/31 10:06:30;;;;;;;4.00;2.30;;;;;;;18.53;80.71;99628.97;105663;1276;23437;-79
2022/07/31 10:09:01;;;;;;;2.70;2.50;;;;;;;18.49;80.70;99633.33;105812;1276;22721;-83
2022/07/31 10:11:54;;;;;;;;;;;;;;;18.43;80.86;99632.00;105886;1276;22519;-87
2022/07/31 10:14:27;;;;;;;2.10;1.90;;;;;;;18.45;81.17;99627.66;105897;1276;22534;-91
2022/07/31 10:16:57;;;;;;;3.00;1.90;;;;;;;18.46;81.05;99624.34;105932;1274;22583;-83
2022/07/31 10:19:35;;;;;;;2.30;1.90;;;;;;;18.47;81.03;99623.77;106088;1273;25433;-82
2022/07/31 10:22:25;;;;;;;2.10;2.00;;;;;;;18.52;81.20;99627.23;106016;1274;22759;-82
2022/07/31 10:24:54;;;;;;;2.20;2.00;;;;;;;18.54;81.14;99627.49;106158;1274;22691;-82
2022/07/31 10:27:22;;;;;;;2.60;2.40;;;;;;;18.54;81.02;99629.65;106071;1273;22844;-81
2022/07/31 10:30:05;;;;;;;2.70;2.10;;;;;;;18.57;81.10;99635.92;105983;1274;25380;-70
2022/07/31 10:32:36;;;;;;;1.60;1.50;;;;;;;18.61;81.04;99635.67;106109;1273;22696;-82
2022/07/31 10:35:21;;;;;;;3.70;2.20;;;;;;;18.72;81.20;99637.95;106059;1274;25549;-79
2022/07/31 10:38:19;;;;;;;2.50;2.30;;;;;;;18.80;81.00;99639.81;106008;1273;25302;-84
2022/07/31 10:41:20;;;;;;;1.90;1.80;;;;;;;18.88;80.86;99641.15;106333;1273;25263;-74
2022/07/31 10:43:52;;;;;;;2.00;1.90;;;;;;;18.89;80.52;99643.45;105886;1273;22565;-72
2022/07/31 10:46:51;;;;;;;2.70;1.90;;;;;;;18.88;80.23;99643.86;105820;1273;24225;-74
2022/07/31 10:49:45;;;;;;;2.40;1.80;;;;;;;18.90;80.34;99647.66;106096;1273;24244;-72
2022/07/31 10:52:38;;;;;;;3.70;1.80;;;;;;;18.93;80.35;99645.52;105880;1273;24502;-72
2022/07/31 10:55:22;;;;;;;14.00;12.60;;;;;;;18.93;80.10;99645.86;106005;1273;25368;-73
2022/07/31 10:58:08;;;;;;;2.00;1.80;;;;;;;18.96;80.05;99649.48;106048;1273;25262;-74
2022/07/31 11:01:07;;;;;;;2.20;2.00;;;;;;;18.95;79.94;99644.52;106122;1273;22829;-73
2022/07/31 11:04:02;;;;;;;2.10;1.90;;;;;;;18.97;80.08;99647.11;105905;1274;22556;-73
2022/07/31 11:06:50;;;;;;;2.40;2.20;;;;;;;19.00;79.89;99649.77;106079;1273;25546;-73
2022/07/31 11:09:36;;;;;;;2.50;2.00;;;;;;;19.01;79.60;99652.06;106005;1273;22621;-81
2022/07/31 11:13:05;;;;;;;2.30;1.70;;;;;;;19.00;79.55;99648.17;105591;1281;24344;-73
2022/07/31 11:16:05;;;;;;;2.20;1.60;;;;;;;18.99;79.58;99651.45;105335;1281;22576;-73
2022/07/31 11:19:05;;;;;;;2.50;2.00;;;;;;;19.00;79.59;99648.72;106004;1273;22555;-73
2022/07/31 11:21:36;;;;;;;6.00;2.30;;;;;;;18.95;79.41;99647.73;106108;1273;22712;-71
2022/07/31 11:24:23;;;;;;;3.20;2.10;;;;;;;18.94;79.55;99651.73;106001;1274;22611;-72
2022/07/31 11:26:56;;;;;;;2.80;1.90;;;;;;;18.91;79.55;99653.65;105999;1273;26843;-73
2022/07/31 11:29:36;;;;;;;5.40;2.50;;;;;;;18.94;79.63;99654.58;105711;1278;23140;-73
2022/07/31 11:32:23;;;;;;;2.40;1.80;;;;;;;18.97;79.63;99656.19;105745;1277;25407;-73
2022/07/31 11:34:54;;;;;;;1.90;1.70;;;;;;;19.03;79.71;99658.21;105898;1277;24251;-75
2022/07/31 11:37:30;;;;;;;3.20;1.90;;;;;;;19.06;79.40;99661.58;105755;1278;24284;-73
2022/07/31 11:40:21;;;;;;;2.40;2.10;;;;;;;19.06;79.17;99661.39;105713;1277;22559;-74
2022/07/31 11:42:54;;;;;;;1.80;1.70;;;;;;;19.02;78.99;99665.17;105895;1277;23958;-74
2022/07/31 11:45:51;;;;;;;2.70;1.90;;;;;;;18.98;79.24;99668.64;105818;1277;25876;-75
2022/07/31 11:48:19;;;;;;;3.20;1.70;;;;;;;18.99;79.50;99675.02;105889;1274;25326;-73
2022/07/31 11:50:50;;;;;;;2.30;2.10;;;;;;;19.01;79.42;99670.41;106041;1273;22537;-80
2022/07/31 11:53:18;;;;;;;3.30;2.30;;;;;;;19.05;79.47;99669.30;105894;1274;22540;-74
2022/07/31 11:55:52;;;;;;;3.70;2.00;;;;;;;19.08;79.19;99671.67;105991;1274;22562;-75
2022/07/31 11:58:23;;;;;;;3.40;2.30;;;;;;;19.02;79.09;99669.45;106086;1274;22550;-73
2022/07/31 12:01:01;;;;;;;1.70;1.60;;;;;;;18.98;79.02;99670.77;106218;1273;24467;-73